Time;durP1;ratioP1;P1;durP2;ratioP2;P2;SDS_P1;SDS_P2;PMS_P1;PMS_P2;Temp;Humidity;BMP_temperature;BMP_pressure;BME280_temperature;BME280_humidity;BME280_pressure;Samples;Min_cycle;Max_cycle;Signal;HPM_P1;HPM_P2
2022/11/20 00:01:12;;;;;;;25.60;11.65;;;;;;;4.02;100.00;99344.59;12206875;19;20026;-82
2022/11/20 00:14:54;;;;;;;31.52;14.75;;;;;;;4.02;100.00;99328.25;12233569;19;20002;-83
2022/11/20 00:19:46;;;;;;;25.63;11.18;;;;;;;4.03;100.00;99327.19;12112955;19;2004345;-82
2022/11/20 00:23:58;;;;;;;27.10;11.60;;;;;;;4.06;100.00;99323.19;12191512;19;20021;-84
2022/11/20 00:28:00;;;;;;;27.83;11.53;;;;;;;4.06;100.00;99328.63;12217230;19;20015;-84
2022/11/20 00:32:01;;;;;;;25.52;11.52;;;;;;;4.05;100.00;99330.53;12212745;19;20034;-83
2022/11/20 00:36:05;;;;;;;28.50;11.13;;;;;;;4.11;100.00;99334.28;12192125;19;20035;-85
2022/11/20 00:40:07;;;;;;;25.95;12.02;;;;;;;4.11;100.00;99337.00;12216131;19;20010;-83
2022/11/20 00:44:09;;;;;;;28.05;11.23;;;;;;;4.11;100.00;99332.38;12216475;19;20074;-83
2022/11/20 00:48:11;;;;;;;23.13;11.38;;;;;;;4.08;100.00;99321.06;12196318;19;20014;-83
2022/11/20 00:52:12;;;;;;;25.65;10.85;;;;;;;4.07;100.00;99322.13;12214752;19;20406;-83
2022/11/20 00:56:16;;;;;;;26.50;11.68;;;;;;;4.13;100.00;99312.22;12211905;19;20010;-82
2022/11/20 01:00:18;;;;;;;24.60;10.40;;;;;;;4.15;100.00;99310.94;12195504;19;20476;-83
2022/11/20 01:04:20;;;;;;;22.15;9.27;;;;;;;4.17;100.00;99321.66;12211772;19;20011;-82
2022/11/20 01:08:21;;;;;;;25.38;11.02;;;;;;;4.11;100.00;99321.47;12217101;19;20027;-82
2022/11/20 01:12:23;;;;;;;22.17;10.00;;;;;;;4.09;100.00;99323.56;12194576;19;20006;-83
2022/11/20 02:03:07;;;;;;;25.63;10.68;;;;;;;4.21;100.00;99309.22;12230477;19;20007;-82
2022/11/20 02:07:09;;;;;;;25.20;10.85;;;;;;;4.15;100.00;99304.66;12194299;19;20373;-82
2022/11/20 02:11:12;;;;;;;22.23;10.10;;;;;;;4.17;100.00;99308.03;12216839;19;20007;-82
2022/11/20 02:15:14;;;;;;;26.08;11.00;;;;;;;4.16;100.00;99301.69;12192199;19;20051;-82
2022/11/20 02:19:28;;;;;;;23.52;10.85;;;;;;;4.19;100.00;99303.16;12210911;19;20027;-83
2022/11/20 02:23:39;;;;;;;23.98;10.07;;;;;;;4.19;100.00;99305.88;12210649;19;20010;-83
2022/11/20 02:53:36;;;;;;;27.15;11.07;;;;;;;4.06;100.00;99290.47;12232274;19;20257;-83
2022/11/20 03:03:32;;;;;;;29.50;12.48;;;;;;;4.07;100.00;99292.13;12187336;19;20067;-83
2022/11/20 03:07:54;;;;;;;31.52;12.70;;;;;;;4.07;100.00;99292.13;12214917;19;20392;-83
2022/11/20 03:11:58;;;;;;;36.08;14.20;;;;;;;4.05;100.00;99302.44;12189803;19;20010;-83
2022/11/20 03:17:11;;;;;;;36.47;13.60;;;;;;;3.95;100.00;99302.88;12202426;19;20028;-84
2022/11/20 03:22:21;;;;;;;32.97;12.25;;;;;;;3.96;100.00;99306.47;12187546;19;20015;-84
2022/11/20 03:26:33;;;;;;;33.00;11.82;;;;;;;3.96;100.00;99299.13;12212633;19;20015;-83
2022/11/20 03:30:40;;;;;;;33.22;12.55;;;;;;;4.01;100.00;99288.38;12185087;19;20018;-83
2022/11/20 03:49:46;;;;;;;39.83;13.77;;;;;;;3.99;100.00;99289.69;12166700;19;2004402;-81
2022/11/20 03:58:52;;;;;;;37.15;14.13;;;;;;;4.01;100.00;99293.00;12247625;19;20010;-82
2022/11/20 04:03:16;;;;;;;33.10;14.10;;;;;;;4.02;100.00;99292.78;12194993;19;20447;-82
2022/11/20 04:07:23;;;;;;;36.35;12.95;;;;;;;4.03;100.00;99291.72;12223649;19;20010;-82
2022/11/20 04:11:27;;;;;;;43.03;15.90;;;;;;;4.02;100.00;99295.53;12220734;19;20126;-82
2022/11/20 04:15:29;;;;;;;35.67;14.45;;;;;;;4.05;100.00;99292.34;12196373;19;20491;-82
2022/11/20 04:19:38;;;;;;;35.65;13.90;;;;;;;4.04;100.00;99290.66;12220436;19;20521;-83
2022/11/20 04:23:40;;;;;;;38.63;14.13;;;;;;;4.06;100.00;99279.56;12220226;19;20465;-82
2022/11/20 04:27:42;;;;;;;37.50;13.77;;;;;;;4.05;100.00;99270.53;12199280;19;20059;-83
2022/11/20 04:31:44;;;;;;;35.75;14.25;;;;;;;4.07;100.00;99270.31;12219632;19;20014;-82
2022/11/20 04:35:48;;;;;;;36.90;13.35;;;;;;;4.07;100.00;99262.97;12218729;19;20015;-83
2022/11/20 05:05:48;;;;;;;43.00;14.18;;;;;;;4.01;100.00;99255.66;12216649;19;20088;-82
2022/11/20 05:10:18;;;;;;;40.53;14.98;;;;;;;4.09;100.00;99260.84;12223274;19;20014;-82
2022/11/20 05:14:27;;;;;;;37.42;14.98;;;;;;;4.07;100.00;99267.59;12217635;19;20010;-83
2022/11/20 05:18:29;;;;;;;43.22;15.52;;;;;;;4.10;100.00;99265.28;12194225;19;20094;-81
2022/11/20 05:22:31;;;;;;;35.25;13.98;;;;;;;4.17;100.00;99261.66;12216673;19;20006;-81
2022/11/20 05:26:33;;;;;;;40.15;15.20;;;;;;;4.19;100.00;99249.44;12215926;19;20027;-82
2022/11/20 05:30:34;;;;;;;48.50;16.55;;;;;;;4.20;100.00;99255.75;12196823;19;20006;-83
2022/11/20 05:34:36;;;;;;;43.28;16.45;;;;;;;4.13;100.00;99257.69;12214562;19;20014;-81
2022/11/20 05:38:38;;;;;;;41.60;16.05;;;;;;;4.08;100.00;99252.91;12216744;19;20070;-83
2022/11/20 05:42:40;;;;;;;43.70;15.05;;;;;;;4.15;100.00;99256.41;12194985;19;20014;-83
2022/11/20 05:46:41;;;;;;;42.42;15.10;;;;;;;4.20;100.00;99253.88;12216157;19;20535;-82
2022/11/20 05:50:43;;;;;;;52.00;17.10;;;;;;;4.26;100.00;99254.88;12218512;19;20007;-82
2022/11/20 05:54:44;;;;;;;41.40;15.50;;;;;;;4.21;100.00;99254.69;12193287;19;20010;-83
2022/11/20 05:58:47;;;;;;;46.72;15.95;;;;;;;4.17;100.00;99242.56;12215018;19;20014;-82
2022/11/20 06:02:48;;;;;;;43.30;14.97;;;;;;;4.11;100.00;99234.22;12216993;19;20006;-83
2022/11/20 06:06:50;;;;;;;39.85;13.88;;;;;;;4.17;100.00;99237.13;12193219;19;20014;-83
2022/11/20 06:10:52;;;;;;;45.42;15.13;;;;;;;4.20;100.00;99253.03;12217775;19;20011;-82
2022/11/20 06:14:53;;;;;;;68.25;17.45;;;;;;;4.17;100.00;99232.50;12191362;19;20476;-83
2022/11/20 06:18:55;;;;;;;32.72;13.82;;;;;;;4.18;100.00;99225.13;12187220;19;20064;-82
2022/11/20 06:22:56;;;;;;;35.10;12.43;;;;;;;4.17;100.00;99237.94;12236405;19;20030;-82
2022/11/20 06:31:56;;;;;;;35.70;11.73;;;;;;;4.22;100.00;99251.72;12203767;19;20089;-81
2022/11/20 06:36:02;;;;;;;36.13;12.43;;;;;;;4.20;100.00;99247.59;12187355;19;20086;-82
2022/11/20 06:40:11;;;;;;;39.05;14.13;;;;;;;4.22;100.00;99242.72;12211844;19;20007;-83
2022/11/20 06:44:13;;;;;;;36.25;14.02;;;;;;;4.20;100.00;99247.59;12210373;19;20728;-82
2022/11/20 06:48:15;;;;;;;33.22;12.60;;;;;;;4.21;100.00;99260.16;12191056;19;20821;-81
2022/11/20 06:52:17;;;;;;;34.03;12.88;;;;;;;4.17;100.00;99256.19;12209966;19;20478;-82
2022/11/20 06:56:19;;;;;;;34.95;12.68;;;;;;;4.21;100.00;99238.34;12210051;19;20013;-81
2022/11/20 07:00:33;;;;;;;31.58;12.80;;;;;;;4.24;100.00;99244.16;12191665;19;20024;-81
2022/11/20 07:04:47;;;;;;;28.45;11.13;;;;;;;4.26;100.00;99249.41;12207487;19;20021;-82
2022/11/20 07:08:52;;;;;;;32.53;12.63;;;;;;;4.27;100.00;99261.97;12210579;19;20385;-82
2022/11/20 07:12:54;;;;;;;23.77;10.48;;;;;;;4.24;100.00;99265.97;12188046;19;20393;-82
2022/11/20 07:16:56;;;;;;;32.20;11.90;;;;;;;4.28;100.00;99260.91;12205786;19;20352;-82
2022/11/20 07:21:05;;;;;;;28.20;12.00;;;;;;;4.31;100.00;99274.09;12186184;19;20034;-82
2022/11/20 07:25:08;;;;;;;31.30;12.82;;;;;;;4.31;100.00;99263.19;12205267;19;20035;-81
2022/11/20 07:29:10;;;;;;;;;;;;;;;4.34;100.00;99268.22;12209300;19;20469;-81
2022/11/20 07:33:11;;;;;;;28.13;11.73;;;;;;;4.34;100.00;99274.53;12185891;19;19918;-81
2022/11/20 07:37:13;;;;;;;39.67;12.65;;;;;;;4.21;100.00;99282.78;12206872;19;20011;-81
2022/11/20 07:41:15;;;;;;;31.00;12.40;;;;;;;4.20;100.00;99275.69;12209213;19;20007;-82
2022/11/20 07:49:41;;;;;;;32.10;12.50;;;;;;;4.28;100.00;99275.41;12208689;19;20015;-82
2022/11/20 07:53:43;;;;;;;31.92;12.52;;;;;;;4.30;100.00;99276.00;12196960;19;20090;-82
2022/11/20 07:57:45;;;;;;;32.03;13.18;;;;;;;4.30;100.00;99288.81;12173420;19;20479;-82
2022/11/20 08:01:47;;;;;;;32.35;12.88;;;;;;;4.27;100.00;99297.44;12191639;19;20101;-83
2022/11/20 08:05:48;;;;;;;33.25;13.45;;;;;;;4.28;100.00;99310.00;12209289;19;20034;-82
2022/11/20 08:09:50;;;;;;;30.05;13.38;;;;;;;4.34;100.00;99303.66;12184657;19;19999;-81
2022/11/20 08:18:12;;;;;;;30.80;12.23;;;;;;;4.44;100.00;99304.03;12188008;19;20020;-81
2022/11/20 08:22:34;;;;;;;27.38;11.93;;;;;;;4.54;100.00;99320.72;12206101;19;20011;-81
2022/11/20 08:26:36;;;;;;;26.90;11.23;;;;;;;4.66;100.00;99314.53;12216174;19;20030;-82
2022/11/20 08:30:38;;;;;;;26.35;13.27;;;;;;;4.70;100.00;99313.03;12202678;19;20014;-81
2022/11/20 08:34:40;;;;;;;22.50;9.63;;;;;;;4.75;100.00;99316.75;12222081;19;20068;-83
2022/11/20 08:38:41;;;;;;;23.38;10.60;;;;;;;4.92;100.00;99314.28;12270022;19;20045;-80
2022/11/20 08:43:14;;;;;;;25.13;11.75;;;;;;;5.22;100.00;99314.38;12238391;19;20010;-84
2022/11/20 08:47:18;;;;;;;23.90;10.25;;;;;;;5.32;100.00;99322.03;12242356;19;20647;-85
2022/11/20 08:51:21;;;;;;;24.27;10.95;;;;;;;5.33;100.00;99322.91;12230873;19;20023;-84
2022/11/20 08:55:22;;;;;;;25.17;12.18;;;;;;;5.46;100.00;99314.53;12228986;19;20014;-85
2022/11/20 08:59:24;;;;;;;24.73;10.48;;;;;;;5.66;100.00;99312.41;12228801;19;20014;-85
2022/11/20 09:03:46;;;;;;;24.83;10.63;;;;;;;5.69;100.00;99322.03;12204501;19;20510;-83
2022/11/20 09:07:48;;;;;;;27.25;11.73;;;;;;;5.67;100.00;99314.06;12227393;19;20366;-83
2022/11/20 09:11:50;;;;;;;28.00;11.23;;;;;;;5.64;100.00;99316.41;12219050;19;20543;-83
2022/11/20 09:15:56;;;;;;;26.57;11.63;;;;;;;5.52;100.00;99321.81;12195263;19;20068;-82
2022/11/20 09:19:57;;;;;;;26.42;11.18;;;;;;;5.51;100.00;99311.13;12217867;19;20006;-83
2022/11/20 09:23:59;;;;;;;26.27;11.10;;;;;;;5.57;100.00;99321.97;12197367;19;20467;-83
2022/11/20 09:28:01;;;;;;;29.92;12.27;;;;;;;5.68;100.00;99329.41;12219605;19;21573;-81
2022/11/20 09:32:03;;;;;;;27.42;10.90;;;;;;;5.84;100.00;99322.47;12221205;19;20035;-83
2022/11/20 09:36:04;;;;;;;23.98;11.30;;;;;;;6.00;100.00;99328.38;12197666;19;20364;-84
2022/11/20 09:40:12;;;;;;;27.35;10.70;;;;;;;6.10;100.00;99336.88;12215519;19;20014;-83
2022/11/20 09:44:34;;;;;;;25.50;11.10;;;;;;;6.19;100.00;99332.75;12221193;19;20436;-83
2022/11/20 09:49:01;;;;;;;24.58;10.60;;;;;;;6.24;100.00;99338.34;12199919;19;20007;-84
2022/11/20 09:53:12;;;;;;;27.13;11.18;;;;;;;6.26;100.00;99332.66;12219363;19;20010;-83
2022/11/20 09:57:18;;;;;;;25.17;10.13;;;;;;;6.15;100.00;99326.06;12198947;19;20090;-84
2022/11/20 10:01:25;;;;;;;26.88;12.00;;;;;;;6.07;100.00;99327.25;12221426;19;20345;-83
2022/11/20 10:05:33;;;;;;;22.10;9.88;;;;;;;6.08;100.00;99325.31;12219073;19;20003;-81
2022/11/20 10:09:42;;;;;;;21.27;10.52;;;;;;;6.13;100.00;99322.75;12199952;19;20026;-84
2022/11/20 10:14:04;;;;;;;23.27;10.52;;;;;;;6.29;100.00;99326.69;12215937;19;20575;-84
2022/11/20 10:18:06;;;;;;;21.17;10.20;;;;;;;6.13;100.00;99322.75;12198752;19;20006;-81
2022/11/20 10:22:26;;;;;;;25.88;10.77;;;;;;;6.12;100.00;99321.06;12221952;19;20368;-81
2022/11/20 10:26:52;;;;;;;22.33;10.68;;;;;;;6.11;100.00;99308.44;12221834;19;20011;-82
2022/11/20 10:31:04;;;;;;;22.38;10.35;;;;;;;6.03;100.00;99308.78;12200924;19;20047;-82
2022/11/20 10:35:15;;;;;;;21.47;10.00;;;;;;;5.96;100.00;99311.59;12220988;19;20442;-82
2022/11/20 10:39:25;;;;;;;22.67;10.38;;;;;;;5.96;100.00;99306.13;12198830;19;20231;-83
2022/11/20 10:43:33;;;;;;;23.20;10.65;;;;;;;5.93;100.00;99310.16;12227635;19;20014;-80
2022/11/20 10:47:35;;;;;;;24.48;10.85;;;;;;;5.94;100.00;99295.41;12272551;19;20034;-81
2022/11/20 10:52:11;;;;;;;17.53;8.37;;;;;;;5.91;100.00;99301.31;12248367;19;20082;-80
2022/11/20 10:56:31;;;;;;;28.50;13.52;;;;;;;5.92;100.00;99288.50;12234104;19;20393;-84
2022/11/20 11:31:34;;;;;;;28.10;13.48;;;;;;;6.02;100.00;99260.63;12202505;19;20026;-82
2022/11/20 11:35:48;;;;;;;35.28;14.50;;;;;;;6.09;100.00;99253.97;12203286;19;20015;-84
2022/11/20 11:40:03;;;;;;;32.83;14.68;;;;;;;6.21;100.00;99254.00;12177055;19;20028;-83
2022/11/20 11:49:18;;;;;;;26.25;10.77;;;;;;;6.51;100.00;99242.13;12190774;19;20010;-86
2022/11/20 11:53:27;;;;;;;26.38;11.43;;;;;;;6.60;100.00;99246.16;12208113;19;20006;-84
2022/11/20 11:57:49;;;;;;;27.73;12.25;;;;;;;6.71;100.00;99242.59;12187278;19;20039;-84
2022/11/20 12:01:57;;;;;;;27.10;12.23;;;;;;;6.82;100.00;99232.72;12220459;19;20026;-84
2022/11/20 12:06:15;;;;;;;30.00;13.27;;;;;;;6.89;100.00;99225.22;12203159;19;20003;-84
2022/11/20 12:10:22;;;;;;;28.42;13.07;;;;;;;6.94;100.00;99229.97;12224679;19;20038;-85
2022/11/20 12:14:42;;;;;;;27.27;12.30;;;;;;;7.05;100.00;99220.91;12217083;19;20021;-85
2022/11/20 12:18:47;;;;;;;28.80;12.20;;;;;;;7.18;100.00;99219.81;12197319;19;20345;-85
2022/11/20 12:23:14;;;;;;;25.98;11.45;;;;;;;7.17;100.00;99221.72;12221856;19;20006;-84
2022/11/20 12:27:42;;;;;;;24.88;11.82;;;;;;;7.17;100.00;99213.50;12201363;19;20015;-85
2022/11/20 12:32:18;;;;;;;27.92;12.85;;;;;;;7.16;100.00;99211.81;12220398;19;20030;-85
2022/11/20 12:37:02;;;;;;;25.17;12.35;;;;;;;7.22;100.00;99215.50;12196241;19;20035;-85
2022/11/20 12:46:23;;;;;;;22.08;10.73;;;;;;;7.41;100.00;99195.06;12198975;19;20014;-84
2022/11/20 12:50:40;;;;;;;24.63;11.70;;;;;;;7.43;100.00;99194.81;12222507;19;20003;-84
2022/11/20 12:55:11;;;;;;;24.48;12.23;;;;;;;7.40;100.00;99212.56;12197643;19;20472;-85
2022/11/20 12:59:50;;;;;;;29.73;12.73;;;;;;;7.46;100.00;99199.81;12219814;19;20007;-85
2022/11/20 13:04:00;;;;;;;29.42;13.00;;;;;;;7.58;100.00;99195.09;12195578;19;20350;-85
2022/11/20 13:08:19;;;;;;;27.33;12.03;;;;;;;7.69;100.00;99183.25;12220105;19;20075;-84
2022/11/20 13:12:43;;;;;;;25.50;11.50;;;;;;;7.83;100.00;99182.97;12198775;19;20039;-85
2022/11/20 13:16:47;;;;;;;;;;;;;;;7.91;100.00;99171.56;12218071;19;20021;-84
2022/11/20 13:20:49;;;;;;;23.55;11.52;;;;;;;8.03;100.00;99172.34;12215939;19;19911;-85
2022/11/20 13:24:52;;;;;;;31.00;13.57;;;;;;;8.05;100.00;99161.94;12195161;19;20030;-84
2022/11/20 13:29:22;;;;;;;27.02;12.52;;;;;;;8.17;100.00;99154.44;12217103;19;20248;-85
2022/11/20 13:33:35;;;;;;;31.65;14.10;;;;;;;8.31;100.00;99141.22;12195600;19;20305;-85
2022/11/20 13:37:37;;;;;;;29.50;13.45;;;;;;;8.39;100.00;99137.25;12242947;19;20043;-84
2022/11/20 13:41:40;;;;;;;24.45;12.45;;;;;;;8.46;100.00;99139.81;12264582;19;20045;-84
2022/11/20 13:45:42;;;;;;;27.02;13.82;;;;;;;8.48;100.00;99143.97;12210962;19;20007;-85
2022/11/20 13:49:48;;;;;;;24.95;12.20;;;;;;;8.50;100.00;99143.69;12228999;19;20034;-86
2022/11/20 13:54:17;;;;;;;28.42;13.50;;;;;;;8.47;100.00;99139.53;12223113;19;20002;-85
2022/11/20 13:58:32;;;;;;;27.60;11.85;;;;;;;8.43;100.00;99131.00;12200308;19;20015;-85
2022/11/20 14:02:34;;;;;;;22.13;11.45;;;;;;;8.37;100.00;99120.16;12219312;19;20378;-86
2022/11/20 14:06:46;;;;;;;27.17;12.65;;;;;;;8.33;100.00;99118.97;12197517;19;20021;-85
2022/11/20 14:11:05;;;;;;;23.50;12.52;;;;;;;8.26;100.00;99118.34;12220995;19;20108;-85
2022/11/20 14:15:25;;;;;;;27.77;12.65;;;;;;;8.26;100.00;99121.09;12193763;19;20006;-86
2022/11/20 14:19:30;;;;;;;25.70;12.32;;;;;;;8.30;100.00;99116.75;12224737;19;20031;-86
2022/11/20 14:23:31;;;;;;;23.80;12.73;;;;;;;8.34;100.00;99109.69;12215204;19;20026;-85
2022/11/20 14:27:37;;;;;;;23.52;11.38;;;;;;;8.37;100.00;99100.94;12196773;19;20007;-85
2022/11/20 14:31:38;;;;;;;24.25;11.48;;;;;;;8.42;100.00;99090.91;12216471;19;20007;-85
2022/11/20 14:35:53;;;;;;;22.25;10.48;;;;;;;8.36;100.00;99091.06;12215464;19;20030;-84
2022/11/20 14:39:56;;;;;;;20.65;9.68;;;;;;;8.30;100.00;99092.03;12190523;19;20106;-84
2022/11/20 14:43:59;;;;;;;22.70;9.55;;;;;;;8.28;100.00;99092.31;12214422;19;20035;-84
2022/11/20 14:48:01;;;;;;;20.92;9.98;;;;;;;8.27;100.00;99073.34;12192926;19;20071;-85
2022/11/20 14:52:15;;;;;;;20.05;10.73;;;;;;;8.24;100.00;99066.47;12213338;19;20344;-85
2022/11/20 14:56:22;;;;;;;21.80;10.38;;;;;;;8.18;100.00;99071.03;12212488;19;20003;-85
2022/11/20 15:00:24;;;;;;;17.42;9.10;;;;;;;8.10;100.00;99065.97;12192908;19;20038;-84
2022/11/20 15:04:27;;;;;;;18.57;8.97;;;;;;;8.04;100.00;99060.66;12212750;19;20748;-84
2022/11/20 15:08:29;;;;;;;14.67;6.83;;;;;;;7.97;100.00;99063.56;12213821;19;20003;-84
2022/11/20 15:12:32;;;;;;;20.05;9.85;;;;;;;7.95;100.00;99065.75;12184954;19;20259;-85
2022/11/20 15:16:34;;;;;;;17.10;8.38;;;;;;;7.93;100.00;99056.94;12208162;19;20023;-84
2022/11/20 15:20:36;;;;;;;18.65;8.82;;;;;;;7.91;100.00;99054.47;12210718;19;20010;-85
2022/11/20 15:24:37;;;;;;;19.10;9.48;;;;;;;7.87;100.00;99055.19;12189849;19;20059;-85
2022/11/20 15:28:43;;;;;;;20.17;9.27;;;;;;;7.82;100.00;99044.97;12211794;19;20017;-84
2022/11/20 15:32:46;;;;;;;18.50;8.93;;;;;;;7.76;100.00;99052.31;12211789;19;20536;-84
2022/11/20 15:36:48;;;;;;;16.48;8.95;;;;;;;7.76;100.00;99045.97;12183265;19;20066;-84
2022/11/20 15:40:49;;;;;;;18.45;8.90;;;;;;;7.76;100.00;99043.22;12212134;19;20014;-84
2022/11/20 15:44:51;;;;;;;18.90;8.98;;;;;;;7.78;100.00;99032.00;12211018;19;20002;-85
2022/11/20 15:48:57;;;;;;;19.27;9.15;;;;;;;7.76;100.00;99035.84;12190036;19;20010;-84
2022/11/20 15:52:58;;;;;;;19.55;8.98;;;;;;;7.73;100.00;99030.88;12208583;19;20011;-84
2022/11/20 15:57:02;;;;;;;16.92;8.38;;;;;;;7.68;100.00;99027.22;12192033;19;20010;-84
2022/11/20 16:01:03;;;;;;;;;;;;;;;7.65;100.00;99030.44;12211512;19;20006;-85
2022/11/20 16:05:11;;;;;;;15.40;7.53;;;;;;;7.66;100.00;99024.69;12206413;19;21317;-84
2022/11/20 16:09:12;;;;;;;19.02;8.02;;;;;;;7.65;100.00;99027.72;12189805;19;20014;-84
2022/11/20 16:17:44;;;;;;;16.48;7.82;;;;;;;7.65;100.00;99012.09;12202713;19;20374;-85
2022/11/20 16:21:46;;;;;;;14.50;7.55;;;;;;;7.65;100.00;99014.81;12184214;19;20035;-84
2022/11/20 16:25:48;;;;;;;12.88;6.93;;;;;;;7.64;100.00;99007.66;12214276;19;20479;-85
2022/11/20 16:29:50;;;;;;;16.40;7.72;;;;;;;7.63;100.00;99006.00;12219430;19;20480;-84
2022/11/20 16:33:53;;;;;;;16.90;7.32;;;;;;;7.65;100.00;98997.56;12190454;19;20057;-83
2022/11/20 16:37:56;;;;;;;12.93;7.10;;;;;;;7.66;100.00;98991.78;12206651;19;20018;-84
2022/11/20 16:41:58;;;;;;;17.25;7.85;;;;;;;7.69;100.00;98974.84;12200196;19;20018;-83
2022/11/20 16:46:03;;;;;;;10.60;5.65;;;;;;;7.68;100.00;98972.38;12212255;19;20019;-84
2022/11/20 16:50:05;;;;;;;12.65;7.18;;;;;;;7.66;100.00;98969.03;12220278;19;20006;-84
2022/11/20 16:54:08;;;;;;;14.17;6.30;;;;;;;7.66;100.00;98969.84;12196296;19;20361;-83
2022/11/20 17:03:05;;;;;;;8.93;4.93;;;;;;;7.68;100.00;98958.66;12244760;19;20793;-85
2022/11/20 17:07:29;;;;;;;8.07;3.70;;;;;;;7.63;100.00;98967.63;12121750;19;2004443;-85
2022/11/20 17:11:32;;;;;;;6.88;3.13;;;;;;;7.62;100.00;98962.41;12223067;19;20014;-85
2022/11/20 17:15:34;;;;;;;7.03;4.13;;;;;;;7.61;100.00;98957.97;12195902;19;20031;-85
2022/11/20 17:19:41;;;;;;;5.63;2.88;;;;;;;7.57;100.00;98954.91;12206743;19;20011;-86
2022/11/20 17:23:44;;;;;;;5.05;2.60;;;;;;;7.55;100.00;98948.84;12208817;19;20027;-87
2022/11/20 17:27:46;;;;;;;;;;;;;;;7.49;100.00;98950.69;12191776;19;20527;-87
2022/11/20 17:31:47;;;;;;;10.20;4.07;;;;;;;7.49;100.00;98958.06;12214213;19;19943;-86
2022/11/20 17:35:49;;;;;;;7.30;3.63;;;;;;;7.43;100.00;98942.63;12217040;19;20018;-87
2022/11/20 17:39:51;;;;;;;8.00;3.70;;;;;;;7.41;100.00;98939.34;12196209;19;20007;-83
2022/11/20 17:43:55;;;;;;;7.75;3.08;;;;;;;7.41;100.00;98933.84;12262756;19;20011;-87
2022/11/20 17:47:56;;;;;;;6.47;3.13;;;;;;;7.45;100.00;98932.25;12274203;19;20047;-86
2022/11/20 17:51:58;;;;;;;6.68;3.03;;;;;;;7.46;100.00;98928.44;12229012;19;20011;-85
2022/11/20 18:00:24;;;;;;;11.43;4.43;;;;;;;7.44;100.00;98922.38;12195249;19;20083;-84
2022/11/20 18:04:25;;;;;;;;;;;;;;;7.44;100.00;98905.94;12220139;19;20014;-85
2022/11/20 18:08:27;;;;;;;5.68;2.88;;;;;;;7.44;100.00;98900.47;12220706;19;20031;-86
2022/11/20 18:12:29;;;;;;;6.18;2.95;;;;;;;7.38;100.00;98887.75;12198513;19;20508;-85
2022/11/20 18:16:37;;;;;;;10.00;4.05;;;;;;;7.33;100.00;98877.53;12219722;19;20013;-86
2022/11/20 18:20:44;;;;;;;9.32;3.40;;;;;;;7.30;100.00;98881.59;12214774;19;20090;-85
2022/11/20 18:24:46;;;;;;;4.63;2.55;;;;;;;7.28;100.00;98881.03;12211686;19;20007;-87
2022/11/20 18:28:48;;;;;;;6.40;3.03;;;;;;;7.28;100.00;98872.81;12215266;19;20026;-85
2022/11/20 18:33:09;;;;;;;7.50;3.00;;;;;;;7.26;100.00;98872.25;12220247;19;20006;-86
2022/11/20 18:37:14;;;;;;;6.53;2.92;;;;;;;7.26;100.00;98855.81;12213481;19;20017;-84
2022/11/20 18:45:41;;;;;;;10.32;3.90;;;;;;;7.25;100.00;98842.34;12212525;19;20014;-84
2022/11/20 18:49:49;;;;;;;9.55;3.80;;;;;;;7.25;100.00;98834.94;12221004;19;20028;-84
2022/11/20 18:53:51;;;;;;;6.00;3.50;;;;;;;7.25;100.00;98834.13;12216313;19;20002;-84
2022/11/20 18:57:54;;;;;;;6.88;3.33;;;;;;;7.19;100.00;98837.88;12193464;19;19998;-84
2022/11/20 19:01:55;;;;;;;8.33;4.77;;;;;;;7.18;100.00;98837.03;12211107;19;20366;-84
2022/11/20 19:05:59;;;;;;;10.77;3.90;;;;;;;7.18;100.00;98837.03;12209418;19;20007;-84
2022/11/20 19:10:00;;;;;;;9.88;4.25;;;;;;;7.12;100.00;98834.50;12213118;19;20010;-84
2022/11/20 19:14:05;;;;;;;9.32;3.75;;;;;;;7.09;100.00;98838.56;12212016;19;20007;-83
2022/11/20 19:18:07;;;;;;;6.13;3.35;;;;;;;7.08;100.00;98837.72;12187926;19;20022;-84
2022/11/20 19:22:09;;;;;;;8.50;4.07;;;;;;;7.06;100.00;98830.84;12206308;19;20020;-84
2022/11/20 19:26:10;;;;;;;7.53;4.57;;;;;;;7.06;100.00;98830.84;12212303;19;20026;-84
2022/11/20 19:30:14;;;;;;;7.35;4.35;;;;;;;7.02;100.00;98843.34;12192996;19;20010;-84
2022/11/20 19:34:15;;;;;;;9.27;3.53;;;;;;;7.02;100.00;98832.41;12211573;19;20006;-84
2022/11/20 19:38:17;;;;;;;11.70;5.15;;;;;;;7.01;100.00;98828.84;12212353;19;20399;-85
2022/11/20 19:42:19;;;;;;;6.82;3.00;;;;;;;7.02;100.00;98807.75;12191615;19;20024;-85
2022/11/20 19:46:22;;;;;;;9.77;4.70;;;;;;;7.03;100.00;98817.66;12214434;19;20006;-85
2022/11/20 19:50:23;;;;;;;6.50;3.45;;;;;;;7.08;100.00;98825.94;12219361;19;20435;-84
2022/11/20 19:54:25;;;;;;;8.13;3.10;;;;;;;7.05;100.00;98821.78;12187232;19;20847;-85
2022/11/20 19:58:28;;;;;;;5.70;2.47;;;;;;;7.08;100.00;98812.25;12213757;19;20059;-85
2022/11/20 20:02:30;;;;;;;5.60;2.70;;;;;;;7.10;100.00;98810.06;12215592;19;20113;-86
2022/11/20 20:06:37;;;;;;;5.40;2.67;;;;;;;7.13;100.00;98790.38;12236598;19;20013;-84
2022/11/20 20:10:39;;;;;;;5.60;2.58;;;;;;;7.15;100.00;98795.63;12224748;19;20417;-85
2022/11/20 20:14:51;;;;;;;7.50;2.60;;;;;;;7.10;100.00;98801.03;12213893;19;20003;-86
2022/11/20 20:19:05;;;;;;;;;;;;;;;;;;;;;
2022/11/20 20:23:44;;;;;;;6.90;3.88;;;;;;;7.02;100.00;98805.00;12215390;19;20609;-85
2022/11/20 20:28:45;;;;;;;7.90;3.17;;;;;;;6.99;100.00;98809.09;12214032;19;20006;-85
2022/11/20 20:32:47;;;;;;;7.38;2.70;;;;;;;6.98;100.00;98809.34;12220346;19;20007;-85
2022/11/20 20:36:56;;;;;;;6.15;2.88;;;;;;;6.96;100.00;98803.28;12174556;19;20096;-85
2022/11/20 20:41:05;;;;;;;5.03;2.80;;;;;;;6.96;100.00;98804.13;12223442;19;20011;-86
2022/11/20 20:45:17;;;;;;;5.93;3.00;;;;;;;6.91;100.00;98800.47;12202081;19;20018;-86
2022/11/20 20:49:28;;;;;;;8.68;3.53;;;;;;;6.87;100.00;98789.22;12226730;19;20018;-86
2022/11/20 20:53:35;;;;;;;5.85;2.70;;;;;;;6.83;100.00;98797.06;12200579;19;20014;-86
2022/11/20 20:57:40;;;;;;;6.20;2.22;;;;;;;6.74;100.00;98789.53;12225940;19;20384;-86
2022/11/20 21:01:42;;;;;;;8.55;3.10;;;;;;;6.65;100.00;98789.13;12225432;19;20026;-86
2022/11/20 21:06:04;;;;;;;4.65;2.30;;;;;;;6.57;100.00;98776.69;12221251;19;20011;-86
2022/11/20 21:10:34;;;;;;;5.97;2.85;;;;;;;6.53;100.00;98780.16;12224834;19;20011;-84
2022/11/20 21:15:06;;;;;;;5.97;2.70;;;;;;;6.50;100.00;98780.66;12216741;19;20355;-86
2022/11/20 21:19:09;;;;;;;5.60;2.20;;;;;;;6.48;100.00;98777.34;12199619;19;20014;-85
2022/11/20 21:23:13;;;;;;;3.40;2.60;;;;;;;6.44;100.00;98782.47;12217011;19;20536;-86
2022/11/20 21:27:15;;;;;;;4.72;2.90;;;;;;;6.38;100.00;98792.50;12197823;19;20346;-86
2022/11/20 21:31:20;;;;;;;5.32;2.85;;;;;;;6.32;100.00;98784.47;12221146;19;20014;-86
2022/11/20 21:35:22;;;;;;;4.53;2.42;;;;;;;6.27;100.00;98789.84;12215157;19;20007;-86
2022/11/20 21:39:24;;;;;;;5.82;3.08;;;;;;;6.26;100.00;98789.03;12196542;19;20015;-86
2022/11/20 21:43:25;;;;;;;3.53;2.30;;;;;;;6.25;100.00;98790.09;12219380;19;20018;-85
2022/11/20 21:47:27;;;;;;;4.30;2.30;;;;;;;6.33;100.00;98786.13;12222647;19;20014;-85
2022/11/20 21:51:29;;;;;;;4.95;2.53;;;;;;;6.38;100.00;98806.19;12195359;19;20077;-85
2022/11/20 21:55:30;;;;;;;4.43;2.20;;;;;;;6.43;100.00;98808.19;12219041;19;20039;-85
2022/11/20 21:59:32;;;;;;;4.00;1.95;;;;;;;6.48;100.00;98811.00;12215090;19;20010;-85
2022/11/20 22:03:34;;;;;;;3.83;2.00;;;;;;;6.57;100.00;98805.94;12193604;19;20034;-85
2022/11/20 22:07:50;;;;;;;4.88;2.47;;;;;;;6.66;100.00;98795.41;12218213;19;20484;-84
2022/11/20 22:12:03;;;;;;;4.32;2.00;;;;;;;6.74;100.00;98804.03;12164301;19;20007;-84
2022/11/20 22:16:19;;;;;;;3.53;2.13;;;;;;;6.76;100.00;98801.06;12217005;19;20040;-84
2022/11/20 22:20:46;;;;;;;2.78;1.63;;;;;;;6.76;100.00;98790.13;12216451;19;20018;-84
2022/11/20 22:24:51;;;;;;;4.15;1.70;;;;;;;6.80;100.00;98792.09;12210321;19;20011;-83